sensor_id;sensor_type;location;lat;lon;timestamp;P1;durP1;ratioP1;P2;durP2;ratioP2
53287;SDS011;39172;45.550;12.072;2022-11-20T00:03:07;7.32;;;5.10;;
53287;SDS011;39172;45.550;12.072;2022-11-20T00:09:09;7.03;;;4.80;;
53287;SDS011;39172;45.550;12.072;2022-11-20T00:15:10;5.78;;;4.20;;
53287;SDS011;39172;45.550;12.072;2022-11-20T00:21:21;5.60;;;4.03;;
53287;SDS011;39172;45.550;12.072;2022-11-20T00:27:22;6.03;;;4.18;;
53287;SDS011;39172;45.550;12.072;2022-11-20T00:33:23;6.82;;;4.43;;
53287;SDS011;39172;45.550;12.072;2022-11-20T00:39:24;5.63;;;3.78;;
53287;SDS011;39172;45.550;12.072;2022-11-20T00:45:25;4.57;;;2.90;;
53287;SDS011;39172;45.550;12.072;2022-11-20T00:51:26;4.47;;;3.10;;
53287;SDS011;39172;45.550;12.072;2022-11-20T00:57:27;4.60;;;3.03;;
53287;SDS011;39172;45.550;12.072;2022-11-20T01:03:30;6.13;;;3.90;;
53287;SDS011;39172;45.550;12.072;2022-11-20T01:09:31;5.75;;;3.70;;
53287;SDS011;39172;45.550;12.072;2022-11-20T01:15:33;4.57;;;3.50;;
53287;SDS011;39172;45.550;12.072;2022-11-20T01:21:35;4.25;;;3.22;;
53287;SDS011;39172;45.550;12.072;2022-11-20T01:27:36;3.17;;;2.20;;
53287;SDS011;39172;45.550;12.072;2022-11-20T01:33:38;3.17;;;2.15;;
53287;SDS011;39172;45.550;12.072;2022-11-20T01:39:39;2.78;;;1.98;;
53287;SDS011;39172;45.550;12.072;2022-11-20T01:51:50;3.33;;;2.17;;
53287;SDS011;39172;45.550;12.072;2022-11-20T01:57:51;4.80;;;2.60;;
53287;SDS011;39172;45.550;12.072;2022-11-20T02:03:52;3.42;;;2.40;;
53287;SDS011;39172;45.550;12.072;2022-11-20T02:09:53;5.43;;;3.70;;
53287;SDS011;39172;45.550;12.072;2022-11-20T02:15:54;5.30;;;3.72;;
53287;SDS011;39172;45.550;12.072;2022-11-20T02:22:03;5.90;;;3.80;;
53287;SDS011;39172;45.550;12.072;2022-11-20T02:28:06;5.38;;;3.60;;
53287;SDS011;39172;45.550;12.072;2022-11-20T02:34:07;3.97;;;2.72;;
53287;SDS011;39172;45.550;12.072;2022-11-20T02:40:08;3.50;;;2.70;;
53287;SDS011;39172;45.550;12.072;2022-11-20T02:46:09;3.88;;;2.35;;
53287;SDS011;39172;45.550;12.072;2022-11-20T02:52:10;4.22;;;2.95;;
53287;SDS011;39172;45.550;12.072;2022-11-20T02:58:11;3.97;;;2.80;;
53287;SDS011;39172;45.550;12.072;2022-11-20T03:04:12;4.28;;;3.00;;
53287;SDS011;39172;45.550;12.072;2022-11-20T03:10:13;3.38;;;2.38;;
53287;SDS011;39172;45.550;12.072;2022-11-20T03:16:16;5.20;;;3.60;;
53287;SDS011;39172;45.550;12.072;2022-11-20T03:22:17;6.22;;;4.53;;
53287;SDS011;39172;45.550;12.072;2022-11-20T03:28:18;6.75;;;4.50;;
53287;SDS011;39172;45.550;12.072;2022-11-20T03:34:19;4.40;;;3.20;;
53287;SDS011;39172;45.550;12.072;2022-11-20T03:40:20;4.97;;;3.53;;
53287;SDS011;39172;45.550;12.072;2022-11-20T03:46:21;4.65;;;3.20;;
53287;SDS011;39172;45.550;12.072;2022-11-20T03:52:22;3.92;;;2.90;;
53287;SDS011;39172;45.550;12.072;2022-11-20T03:58:23;4.45;;;2.67;;
53287;SDS011;39172;45.550;12.072;2022-11-20T04:04:24;4.70;;;3.33;;
53287;SDS011;39172;45.550;12.072;2022-11-20T04:10:25;4.18;;;3.10;;
53287;SDS011;39172;45.550;12.072;2022-11-20T04:16:26;4.57;;;3.10;;
53287;SDS011;39172;45.550;12.072;2022-11-20T04:22:29;5.47;;;3.50;;
53287;SDS011;39172;45.550;12.072;2022-11-20T04:28:30;6.25;;;4.30;;
53287;SDS011;39172;45.550;12.072;2022-11-20T04:34:30;6.10;;;4.50;;
53287;SDS011;39172;45.550;12.072;2022-11-20T04:40:31;5.72;;;4.13;;
53287;SDS011;39172;45.550;12.072;2022-11-20T04:46:34;3.88;;;2.90;;
53287;SDS011;39172;45.550;12.072;2022-11-20T04:52:35;4.50;;;3.35;;
53287;SDS011;39172;45.550;12.072;2022-11-20T04:58:36;3.65;;;2.40;;
53287;SDS011;39172;45.550;12.072;2022-11-20T05:04:37;4.80;;;3.80;;
53287;SDS011;39172;45.550;12.072;2022-11-20T05:10:38;3.45;;;2.60;;
53287;SDS011;39172;45.550;12.072;2022-11-20T05:16:39;6.53;;;4.40;;
53287;SDS011;39172;45.550;12.072;2022-11-20T05:22:40;6.38;;;4.43;;
53287;SDS011;39172;45.550;12.072;2022-11-20T05:28:41;6.50;;;4.50;;
53287;SDS011;39172;45.550;12.072;2022-11-20T05:34:42;7.47;;;5.63;;
53287;SDS011;39172;45.550;12.072;2022-11-20T05:40:42;7.07;;;5.45;;
53287;SDS011;39172;45.550;12.072;2022-11-20T05:46:43;7.63;;;4.97;;
53287;SDS011;39172;45.550;12.072;2022-11-20T05:52:44;5.97;;;4.38;;
53287;SDS011;39172;45.550;12.072;2022-11-20T05:58:45;6.88;;;4.80;;
53287;SDS011;39172;45.550;12.072;2022-11-20T06:04:46;5.40;;;4.10;;
53287;SDS011;39172;45.550;12.072;2022-11-20T06:10:47;6.40;;;4.47;;
53287;SDS011;39172;45.550;12.072;2022-11-20T06:16:48;5.22;;;3.58;;
53287;SDS011;39172;45.550;12.072;2022-11-20T06:22:49;5.45;;;3.97;;
53287;SDS011;39172;45.550;12.072;2022-11-20T06:28:51;7.05;;;4.57;;
53287;SDS011;39172;45.550;12.072;2022-11-20T06:34:52;7.43;;;5.45;;
53287;SDS011;39172;45.550;12.072;2022-11-20T06:40:53;9.73;;;6.32;;
53287;SDS011;39172;45.550;12.072;2022-11-20T06:46:54;8.05;;;6.00;;
53287;SDS011;39172;45.550;12.072;2022-11-20T06:52:55;7.82;;;5.28;;
53287;SDS011;39172;45.550;12.072;2022-11-20T06:58:56;7.22;;;5.18;;
53287;SDS011;39172;45.550;12.072;2022-11-20T07:04:56;5.72;;;4.00;;
53287;SDS011;39172;45.550;12.072;2022-11-20T07:10:58;8.48;;;5.47;;
53287;SDS011;39172;45.550;12.072;2022-11-20T07:17:00;6.13;;;4.38;;
53287;SDS011;39172;45.550;12.072;2022-11-20T07:23:01;7.35;;;5.10;;
53287;SDS011;39172;45.550;12.072;2022-11-20T07:29:02;6.72;;;4.82;;
53287;SDS011;39172;45.550;12.072;2022-11-20T07:35:02;8.95;;;5.68;;
53287;SDS011;39172;45.550;12.072;2022-11-20T07:41:03;8.95;;;6.05;;
53287;SDS011;39172;45.550;12.072;2022-11-20T07:47:04;11.60;;;7.38;;
53287;SDS011;39172;45.550;12.072;2022-11-20T07:53:06;12.60;;;8.07;;
53287;SDS011;39172;45.550;12.072;2022-11-20T07:59:07;16.55;;;10.95;;
53287;SDS011;39172;45.550;12.072;2022-11-20T08:05:08;14.10;;;9.27;;
53287;SDS011;39172;45.550;12.072;2022-11-20T08:11:10;15.88;;;11.20;;
53287;SDS011;39172;45.550;12.072;2022-11-20T08:17:29;12.75;;;8.70;;
53287;SDS011;39172;45.550;12.072;2022-11-20T08:23:30;13.95;;;9.30;;
53287;SDS011;39172;45.550;12.072;2022-11-20T08:29:31;10.57;;;6.53;;
53287;SDS011;39172;45.550;12.072;2022-11-20T08:35:32;10.27;;;7.55;;
53287;SDS011;39172;45.550;12.072;2022-11-20T08:41:33;8.65;;;6.40;;
53287;SDS011;39172;45.550;12.072;2022-11-20T08:47:35;8.05;;;5.82;;
53287;SDS011;39172;45.550;12.072;2022-11-20T08:53:36;8.25;;;5.70;;
53287;SDS011;39172;45.550;12.072;2022-11-20T08:59:37;10.10;;;5.63;;
53287;SDS011;39172;45.550;12.072;2022-11-20T09:05:38;11.90;;;7.57;;
53287;SDS011;39172;45.550;12.072;2022-11-20T09:11:39;9.95;;;7.15;;
53287;SDS011;39172;45.550;12.072;2022-11-20T09:17:40;9.45;;;6.38;;
53287;SDS011;39172;45.550;12.072;2022-11-20T09:23:41;10.23;;;7.40;;
53287;SDS011;39172;45.550;12.072;2022-11-20T09:29:42;9.18;;;6.38;;
53287;SDS011;39172;45.550;12.072;2022-11-20T09:35:43;7.22;;;5.47;;
53287;SDS011;39172;45.550;12.072;2022-11-20T09:48:12;7.57;;;4.88;;
53287;SDS011;39172;45.550;12.072;2022-11-20T09:54:17;6.38;;;3.95;;
53287;SDS011;39172;45.550;12.072;2022-11-20T10:00:19;6.53;;;3.53;;
53287;SDS011;39172;45.550;12.072;2022-11-20T10:06:28;3.55;;;2.30;;
53287;SDS011;39172;45.550;12.072;2022-11-20T10:30:53;1.92;;;1.20;;
53287;SDS011;39172;45.550;12.072;2022-11-20T10:36:59;2.78;;;1.27;;
53287;SDS011;39172;45.550;12.072;2022-11-20T10:43:13;2.60;;;1.55;;
53287;SDS011;39172;45.550;12.072;2022-11-20T10:49:18;3.40;;;1.30;;
53287;SDS011;39172;45.550;12.072;2022-11-20T11:01:30;2.33;;;1.05;;
53287;SDS011;39172;45.550;12.072;2022-11-20T11:07:35;2.60;;;1.55;;
53287;SDS011;39172;45.550;12.072;2022-11-20T11:13:36;2.42;;;1.20;;
53287;SDS011;39172;45.550;12.072;2022-11-20T11:19:37;1.70;;;1.00;;
53287;SDS011;39172;45.550;12.072;2022-11-20T11:25:38;2.40;;;1.20;;
53287;SDS011;39172;45.550;12.072;2022-11-20T11:31:39;1.50;;;1.00;;
53287;SDS011;39172;45.550;12.072;2022-11-20T11:37:40;1.90;;;0.82;;
53287;SDS011;39172;45.550;12.072;2022-11-20T11:43:48;1.65;;;0.75;;
53287;SDS011;39172;45.550;12.072;2022-11-20T11:50:13;1.10;;;0.70;;
53287;SDS011;39172;45.550;12.072;2022-11-20T11:56:16;1.10;;;0.80;;
53287;SDS011;39172;45.550;12.072;2022-11-20T12:08:39;1.10;;;0.73;;
53287;SDS011;39172;45.550;12.072;2022-11-20T12:14:45;1.80;;;0.90;;
53287;SDS011;39172;45.550;12.072;2022-11-20T12:21:11;2.03;;;1.00;;
53287;SDS011;39172;45.550;12.072;2022-11-20T12:33:18;1.80;;;1.05;;
53287;SDS011;39172;45.550;12.072;2022-11-20T12:58:00;1.70;;;0.80;;
53287;SDS011;39172;45.550;12.072;2022-11-20T13:16:45;1.88;;;1.25;;
53287;SDS011;39172;45.550;12.072;2022-11-20T13:22:50;1.58;;;1.27;;
53287;SDS011;39172;45.550;12.072;2022-11-20T13:29:11;1.67;;;1.13;;
53287;SDS011;39172;45.550;12.072;2022-11-20T13:35:12;1.70;;;1.00;;
53287;SDS011;39172;45.550;12.072;2022-11-20T13:41:28;2.55;;;1.80;;
53287;SDS011;39172;45.550;12.072;2022-11-20T13:47:29;2.20;;;1.45;;
53287;SDS011;39172;45.550;12.072;2022-11-20T14:05:36;3.05;;;1.63;;
53287;SDS011;39172;45.550;12.072;2022-11-20T14:11:45;1.95;;;1.23;;
53287;SDS011;39172;45.550;12.072;2022-11-20T14:17:46;1.83;;;1.30;;
53287;SDS011;39172;45.550;12.072;2022-11-20T14:23:47;3.53;;;1.73;;
53287;SDS011;39172;45.550;12.072;2022-11-20T14:29:48;2.53;;;1.40;;
53287;SDS011;39172;45.550;12.072;2022-11-20T14:35:51;2.33;;;1.40;;
53287;SDS011;39172;45.550;12.072;2022-11-20T14:41:52;1.30;;;1.00;;
53287;SDS011;39172;45.550;12.072;2022-11-20T14:47:55;2.15;;;1.20;;
53287;SDS011;39172;45.550;12.072;2022-11-20T14:53:56;1.20;;;0.90;;
53287;SDS011;39172;45.550;12.072;2022-11-20T15:06:10;2.40;;;1.55;;
53287;SDS011;39172;45.550;12.072;2022-11-20T15:12:15;3.35;;;1.90;;
53287;SDS011;39172;45.550;12.072;2022-11-20T15:18:28;3.67;;;2.03;;
53287;SDS011;39172;45.550;12.072;2022-11-20T15:24:35;1.98;;;1.58;;
53287;SDS011;39172;45.550;12.072;2022-11-20T15:30:36;2.70;;;1.60;;
53287;SDS011;39172;45.550;12.072;2022-11-20T15:36:36;1.50;;;1.10;;
53287;SDS011;39172;45.550;12.072;2022-11-20T15:42:37;2.85;;;2.00;;
53287;SDS011;39172;45.550;12.072;2022-11-20T15:48:42;2.88;;;2.20;;
53287;SDS011;39172;45.550;12.072;2022-11-20T15:54:44;3.30;;;2.10;;
53287;SDS011;39172;45.550;12.072;2022-11-20T16:00:45;3.47;;;2.45;;
53287;SDS011;39172;45.550;12.072;2022-11-20T16:06:46;4.40;;;2.40;;
53287;SDS011;39172;45.550;12.072;2022-11-20T16:12:47;6.45;;;4.80;;
53287;SDS011;39172;45.550;12.072;2022-11-20T16:19:13;3.38;;;2.42;;
53287;SDS011;39172;45.550;12.072;2022-11-20T16:25:14;8.45;;;5.10;;
53287;SDS011;39172;45.550;12.072;2022-11-20T16:31:16;7.50;;;4.85;;
53287;SDS011;39172;45.550;12.072;2022-11-20T16:37:17;8.35;;;5.43;;
53287;SDS011;39172;45.550;12.072;2022-11-20T16:43:18;6.72;;;4.35;;
53287;SDS011;39172;45.550;12.072;2022-11-20T16:49:19;8.73;;;5.43;;
53287;SDS011;39172;45.550;12.072;2022-11-20T16:55:19;10.80;;;6.38;;
53287;SDS011;39172;45.550;12.072;2022-11-20T17:01:21;8.60;;;5.18;;
53287;SDS011;39172;45.550;12.072;2022-11-20T17:07:22;10.15;;;6.78;;
53287;SDS011;39172;45.550;12.072;2022-11-20T17:13:23;10.32;;;6.25;;
53287;SDS011;39172;45.550;12.072;2022-11-20T17:19:24;13.73;;;9.45;;
53287;SDS011;39172;45.550;12.072;2022-11-20T17:25:24;11.00;;;6.57;;
53287;SDS011;39172;45.550;12.072;2022-11-20T17:31:26;14.30;;;7.90;;
53287;SDS011;39172;45.550;12.072;2022-11-20T17:37:27;14.60;;;9.18;;
53287;SDS011;39172;45.550;12.072;2022-11-20T17:43:28;23.08;;;14.05;;
53287;SDS011;39172;45.550;12.072;2022-11-20T17:49:29;24.10;;;15.02;;
53287;SDS011;39172;45.550;12.072;2022-11-20T17:55:30;24.60;;;15.48;;
53287;SDS011;39172;45.550;12.072;2022-11-20T18:01:51;22.92;;;14.32;;
53287;SDS011;39172;45.550;12.072;2022-11-20T18:07:54;24.45;;;15.48;;
53287;SDS011;39172;45.550;12.072;2022-11-20T18:13:56;16.50;;;11.15;;
53287;SDS011;39172;45.550;12.072;2022-11-20T18:20:16;18.80;;;13.02;;
53287;SDS011;39172;45.550;12.072;2022-11-20T18:26:18;16.95;;;11.18;;
53287;SDS011;39172;45.550;12.072;2022-11-20T18:32:19;17.63;;;12.20;;
53287;SDS011;39172;45.550;12.072;2022-11-20T18:38:21;20.92;;;14.43;;
53287;SDS011;39172;45.550;12.072;2022-11-20T18:44:23;17.77;;;11.40;;
53287;SDS011;39172;45.550;12.072;2022-11-20T18:50:43;24.27;;;15.68;;
53287;SDS011;39172;45.550;12.072;2022-11-20T18:56:44;16.90;;;11.30;;
53287;SDS011;39172;45.550;12.072;2022-11-20T19:02:45;28.60;;;17.05;;
53287;SDS011;39172;45.550;12.072;2022-11-20T19:08:45;33.55;;;22.05;;
53287;SDS011;39172;45.550;12.072;2022-11-20T19:14:46;36.17;;;22.73;;
53287;SDS011;39172;45.550;12.072;2022-11-20T19:20:48;31.23;;;19.70;;
53287;SDS011;39172;45.550;12.072;2022-11-20T19:26:48;29.17;;;19.27;;
53287;SDS011;39172;45.550;12.072;2022-11-20T19:32:49;26.25;;;16.85;;
53287;SDS011;39172;45.550;12.072;2022-11-20T19:38:51;22.50;;;14.30;;
53287;SDS011;39172;45.550;12.072;2022-11-20T19:44:52;25.33;;;15.80;;
53287;SDS011;39172;45.550;12.072;2022-11-20T19:50:53;20.63;;;13.50;;
53287;SDS011;39172;45.550;12.072;2022-11-20T19:56:54;27.92;;;18.70;;
53287;SDS011;39172;45.550;12.072;2022-11-20T20:02:55;26.27;;;17.90;;
53287;SDS011;39172;45.550;12.072;2022-11-20T20:09:00;18.73;;;12.85;;
53287;SDS011;39172;45.550;12.072;2022-11-20T20:15:02;19.10;;;13.15;;
53287;SDS011;39172;45.550;12.072;2022-11-20T20:21:09;13.35;;;9.10;;
53287;SDS011;39172;45.550;12.072;2022-11-20T20:27:11;15.20;;;10.25;;
53287;SDS011;39172;45.550;12.072;2022-11-20T20:33:12;11.32;;;8.15;;
53287;SDS011;39172;45.550;12.072;2022-11-20T20:39:13;16.95;;;12.70;;
53287;SDS011;39172;45.550;12.072;2022-11-20T20:45:14;11.82;;;8.13;;
53287;SDS011;39172;45.550;12.072;2022-11-20T20:51:15;14.20;;;9.68;;
53287;SDS011;39172;45.550;12.072;2022-11-20T20:57:16;11.15;;;7.28;;
53287;SDS011;39172;45.550;12.072;2022-11-20T21:03:17;15.88;;;10.98;;
53287;SDS011;39172;45.550;12.072;2022-11-20T21:09:18;12.38;;;8.68;;
53287;SDS011;39172;45.550;12.072;2022-11-20T21:15:20;18.20;;;13.15;;
53287;SDS011;39172;45.550;12.072;2022-11-20T21:21:20;18.15;;;12.90;;
53287;SDS011;39172;45.550;12.072;2022-11-20T21:27:40;15.68;;;11.07;;
53287;SDS011;39172;45.550;12.072;2022-11-20T21:33:41;13.90;;;9.70;;
53287;SDS011;39172;45.550;12.072;2022-11-20T21:39:42;9.82;;;7.20;;
53287;SDS011;39172;45.550;12.072;2022-11-20T21:45:50;11.68;;;8.43;;
53287;SDS011;39172;45.550;12.072;2022-11-20T21:51:52;10.80;;;7.47;;
53287;SDS011;39172;45.550;12.072;2022-11-20T21:57:53;11.00;;;7.65;;
53287;SDS011;39172;45.550;12.072;2022-11-20T22:03:54;11.50;;;7.00;;
53287;SDS011;39172;45.550;12.072;2022-11-20T22:09:56;10.05;;;7.30;;
53287;SDS011;39172;45.550;12.072;2022-11-20T22:16:00;8.40;;;5.88;;
53287;SDS011;39172;45.550;12.072;2022-11-20T22:22:01;8.48;;;6.40;;
53287;SDS011;39172;45.550;12.072;2022-11-20T22:28:01;8.75;;;6.47;;
53287;SDS011;39172;45.550;12.072;2022-11-20T22:34:02;13.93;;;9.45;;
53287;SDS011;39172;45.550;12.072;2022-11-20T22:40:03;11.32;;;8.15;;
53287;SDS011;39172;45.550;12.072;2022-11-20T22:52:06;9.98;;;6.88;;
53287;SDS011;39172;45.550;12.072;2022-11-20T22:58:07;12.38;;;8.35;;
53287;SDS011;39172;45.550;12.072;2022-11-20T23:04:08;11.68;;;8.52;;
53287;SDS011;39172;45.550;12.072;2022-11-20T23:10:10;14.82;;;10.82;;
53287;SDS011;39172;45.550;12.072;2022-11-20T23:16:13;16.75;;;12.35;;
53287;SDS011;39172;45.550;12.072;2022-11-20T23:22:14;11.30;;;8.20;;
53287;SDS011;39172;45.550;12.072;2022-11-20T23:28:15;10.60;;;7.88;;
53287;SDS011;39172;45.550;12.072;2022-11-20T23:34:16;11.45;;;8.98;;
53287;SDS011;39172;45.550;12.072;2022-11-20T23:40:17;9.18;;;6.22;;
53287;SDS011;39172;45.550;12.072;2022-11-20T23:46:18;11.00;;;8.13;;
53287;SDS011;39172;45.550;12.072;2022-11-20T23:52:19;8.85;;;5.88;;
53287;SDS011;39172;45.550;12.072;2022-11-20T23:58:22;10.82;;;8.60;;
